createdAt,value
2018-02-19T00:01:52.129Z,21.30
2018-02-19T00:04:18.774Z,22.57
2018-02-19T00:06:45.363Z,25.07
2018-02-19T00:09:11.989Z,24.10
2018-02-19T00:11:38.604Z,25.97
2018-02-19T00:14:05.208Z,24.17
2018-02-19T00:16:31.809Z,24.40
2018-02-19T00:18:58.379Z,25.00
2018-02-19T00:21:25.008Z,24.90
2018-02-19T00:23:51.614Z,24.53
2018-02-19T00:26:18.256Z,24.30
2018-02-19T00:28:44.864Z,24.67
2018-02-19T00:31:11.505Z,25.07
2018-02-19T00:33:38.118Z,23.10
2018-02-19T00:36:04.734Z,24.77
2018-02-19T00:38:31.405Z,24.83
2018-02-19T00:40:57.979Z,24.43
2018-02-19T00:43:25.040Z,24.40
2018-02-19T00:45:51.640Z,23.90
2018-02-19T00:48:18.251Z,23.97
2018-02-19T00:50:44.884Z,24.70
2018-02-19T00:53:11.505Z,24.30
2018-02-19T00:55:38.124Z,25.30
2018-02-19T00:58:04.780Z,25.10
2018-02-19T01:00:31.387Z,25.80
2018-02-19T01:02:58.005Z,25.50
2018-02-19T01:05:24.648Z,26.27
2018-02-19T01:07:51.373Z,25.87
2018-02-19T01:10:17.999Z,27.70
2018-02-19T01:12:44.640Z,26.43
2018-02-19T01:15:11.228Z,25.87
2018-02-19T01:17:37.842Z,29.27
2018-02-19T01:20:04.461Z,27.77
2018-02-19T01:22:31.071Z,29.00
2018-02-19T01:24:57.680Z,27.00
2018-02-19T01:27:24.294Z,29.03
2018-02-19T01:29:50.926Z,27.73
2018-02-19T01:32:17.556Z,27.97
2018-02-19T01:34:44.249Z,29.53
2018-02-19T01:37:10.836Z,30.70
2018-02-19T01:39:37.427Z,29.47
2018-02-19T01:42:04.047Z,30.23
2018-02-19T01:44:30.681Z,30.80
2018-02-19T01:46:57.312Z,29.93
2018-02-19T01:49:23.928Z,27.33
2018-02-19T01:51:50.612Z,28.73
2018-02-19T01:54:17.185Z,29.97
2018-02-19T01:56:43.816Z,30.00
2018-02-19T01:59:10.437Z,28.80
2018-02-19T02:01:37.271Z,27.80
2018-02-19T02:04:03.891Z,29.03
2018-02-19T02:06:30.494Z,29.10
2018-02-19T02:08:57.098Z,26.60
2018-02-19T02:11:23.726Z,28.23
2018-02-19T02:13:50.343Z,26.23
2018-02-19T02:16:16.938Z,25.67
2018-02-19T02:18:43.572Z,25.60
2018-02-19T02:21:10.157Z,27.17
2018-02-19T02:23:36.776Z,26.80
2018-02-19T02:26:03.401Z,27.70
2018-02-19T02:28:30.038Z,26.10
2018-02-19T02:30:56.640Z,26.83
2018-02-19T02:33:23.297Z,27.00
2018-02-19T02:35:49.890Z,28.37
2018-02-19T02:38:16.520Z,26.97
2018-02-19T02:40:43.131Z,27.60
2018-02-19T02:43:09.749Z,27.10
2018-02-19T02:45:36.358Z,29.10
2018-02-19T02:48:03.033Z,30.43
2018-02-19T02:50:29.638Z,28.83
2018-02-19T02:52:56.244Z,28.37
2018-02-19T02:55:22.865Z,28.37
2018-02-19T02:57:49.470Z,28.10
2018-02-19T03:00:16.104Z,28.67
2018-02-19T03:02:42.699Z,29.53
2018-02-19T03:05:09.333Z,27.27
2018-02-19T03:07:35.988Z,28.50
2018-02-19T03:10:02.605Z,27.03
2018-02-19T03:12:29.239Z,28.33
2018-02-19T03:14:55.888Z,28.40
2018-02-19T03:17:22.521Z,28.77
2018-02-19T03:19:49.142Z,29.67
2018-02-19T03:22:15.784Z,28.87
2018-02-19T03:24:42.439Z,27.27
2018-02-19T03:27:09.045Z,26.87
2018-02-19T03:29:35.654Z,28.20
2018-02-19T03:32:02.294Z,27.20
2018-02-19T03:34:28.892Z,26.97
2018-02-19T03:36:55.535Z,26.70
2018-02-19T03:39:22.166Z,27.80
2018-02-19T03:41:48.908Z,27.30
2018-02-19T03:44:15.539Z,25.73
2018-02-19T03:46:42.169Z,27.47
2018-02-19T03:49:08.764Z,26.33
2018-02-19T03:51:35.535Z,26.40
2018-02-19T03:54:02.144Z,28.23
2018-02-19T03:56:28.787Z,28.37
2018-02-19T03:58:55.397Z,27.50
2018-02-19T04:01:22.008Z,25.30
2018-02-19T04:03:48.604Z,26.87
2018-02-19T04:06:15.211Z,24.60
2018-02-19T04:08:41.900Z,25.40
2018-02-19T04:11:08.581Z,24.10
2018-02-19T04:13:35.189Z,23.90
2018-02-19T04:16:01.844Z,24.13
2018-02-19T04:18:28.469Z,24.33
2018-02-19T04:20:55.073Z,25.90
2018-02-19T04:23:21.687Z,24.73
2018-02-19T04:25:48.275Z,24.87
2018-02-19T04:28:14.913Z,26.67
2018-02-19T04:30:41.551Z,24.20
2018-02-19T04:33:08.169Z,24.30
2018-02-19T04:35:34.755Z,24.30
2018-02-19T04:38:01.388Z,24.30
2018-02-19T04:40:27.970Z,24.60
2018-02-19T04:43:09.492Z,25.50
2018-02-19T04:45:41.779Z,24.73
2018-02-19T04:48:08.403Z,24.60
2018-02-19T04:50:35.030Z,24.87
2018-02-19T04:53:01.634Z,25.77
2018-02-19T04:55:29.141Z,25.17
2018-02-19T04:57:55.743Z,24.17
2018-02-19T05:00:22.367Z,25.40
2018-02-19T05:02:48.984Z,25.60
2018-02-19T05:05:15.612Z,25.43
2018-02-19T05:07:42.210Z,25.00
2018-02-19T05:10:08.809Z,23.00
2018-02-19T05:12:35.451Z,26.07
2018-02-19T05:15:02.086Z,25.37
2018-02-19T05:17:28.684Z,24.13
2018-02-19T05:19:55.288Z,24.70
2018-02-19T05:22:21.877Z,24.87
2018-02-19T05:24:48.512Z,26.47
2018-02-19T05:27:15.102Z,27.50
2018-02-19T05:29:41.708Z,26.67
2018-02-19T05:32:08.339Z,26.50
2018-02-19T05:34:34.957Z,26.97
2018-02-19T05:37:01.600Z,27.30
2018-02-19T05:39:28.534Z,27.47
2018-02-19T05:41:55.162Z,27.80
2018-02-19T05:44:21.768Z,28.23
2018-02-19T05:46:48.406Z,28.20
2018-02-19T05:49:15.020Z,27.77
2018-02-19T05:51:43.264Z,28.57
2018-02-19T05:54:09.897Z,30.10
2018-02-19T05:56:36.636Z,28.70
2018-02-19T05:59:03.235Z,28.43
2018-02-19T06:01:29.875Z,28.57
2018-02-19T06:03:56.518Z,29.80
2018-02-19T06:06:23.161Z,28.03
2018-02-19T06:08:49.774Z,29.50
2018-02-19T06:11:16.468Z,30.00
2018-02-19T06:13:43.063Z,29.17
2018-02-19T06:16:09.667Z,30.60
2018-02-19T06:18:36.410Z,30.77
2018-02-19T06:21:03.075Z,30.70
2018-02-19T06:23:29.712Z,29.03
2018-02-19T06:25:56.728Z,28.80
2018-02-19T06:28:23.413Z,27.63
2018-02-19T06:30:50.037Z,29.30
2018-02-19T06:33:16.675Z,30.50
2018-02-19T06:35:43.265Z,29.67
2018-02-19T06:38:09.885Z,28.93
2018-02-19T06:40:36.483Z,27.40
2018-02-19T06:43:03.123Z,30.60
2018-02-19T06:45:29.729Z,28.60
2018-02-19T06:47:56.332Z,27.00
2018-02-19T06:50:22.945Z,29.77
2018-02-19T06:52:49.555Z,28.10
2018-02-19T06:55:16.192Z,28.07
2018-02-19T06:57:42.799Z,28.83
2018-02-19T07:00:09.422Z,26.03
2018-02-19T07:02:36.020Z,26.57
2018-02-19T07:05:02.661Z,26.80
2018-02-19T07:07:29.269Z,26.17
2018-02-19T07:09:55.879Z,25.37
2018-02-19T07:12:22.538Z,26.17
2018-02-19T07:14:49.148Z,26.17
2018-02-19T07:17:15.752Z,25.93
2018-02-19T07:19:42.445Z,26.33
2018-02-19T07:22:09.050Z,27.37
2018-02-19T07:24:35.672Z,26.60
2018-02-19T07:27:02.304Z,26.50
2018-02-19T07:29:28.971Z,26.07
2018-02-19T07:31:55.799Z,27.40
2018-02-19T07:34:22.376Z,25.83
2018-02-19T07:36:49.041Z,26.13
2018-02-19T07:39:15.694Z,25.90
2018-02-19T07:41:42.317Z,24.73
2018-02-19T07:44:08.918Z,25.80
2018-02-19T07:46:35.523Z,25.93
2018-02-19T07:49:02.168Z,24.77
2018-02-19T07:51:28.790Z,24.70
2018-02-19T07:53:55.398Z,26.87
2018-02-19T07:56:22.008Z,26.17
2018-02-19T07:58:48.644Z,25.80
2018-02-19T08:01:15.225Z,24.90
2018-02-19T08:03:41.834Z,27.57
2018-02-19T08:06:08.424Z,25.73
2018-02-19T08:08:35.063Z,26.97
2018-02-19T08:11:01.704Z,25.30
2018-02-19T08:13:28.410Z,26.20
2018-02-19T08:15:55.014Z,26.30
2018-02-19T08:18:21.611Z,25.80
2018-02-19T08:20:48.284Z,26.80
2018-02-19T08:23:14.884Z,28.40
2018-02-19T08:25:41.712Z,27.40
2018-02-19T08:28:08.314Z,27.00
2018-02-19T08:30:34.913Z,26.10
2018-02-19T08:33:01.517Z,27.10
2018-02-19T08:35:28.166Z,28.20
2018-02-19T08:37:54.783Z,27.73
2018-02-19T08:40:21.408Z,26.60
2018-02-19T08:42:48.028Z,28.33
2018-02-19T08:45:14.635Z,27.70
2018-02-19T08:47:41.254Z,28.40
2018-02-19T08:50:07.858Z,27.07
2018-02-19T08:52:34.496Z,26.63
2018-02-19T08:55:01.237Z,28.63
2018-02-19T08:57:27.891Z,25.83
2018-02-19T08:59:54.641Z,26.43
2018-02-19T09:02:21.255Z,26.13
2018-02-19T09:04:47.867Z,25.63
2018-02-19T09:07:14.522Z,24.93
2018-02-19T09:09:41.258Z,27.53
2018-02-19T09:12:07.901Z,26.43
2018-02-19T09:14:34.532Z,22.97
2018-02-19T09:17:01.224Z,23.03
2018-02-19T09:19:27.879Z,21.47
2018-02-19T09:21:54.561Z,19.37
2018-02-19T09:24:21.180Z,20.23
2018-02-19T09:26:47.833Z,21.97
2018-02-19T09:29:14.525Z,21.20
2018-02-19T09:31:41.173Z,22.10
2018-02-19T09:34:07.839Z,20.43
2018-02-19T09:36:34.497Z,20.60
2018-02-19T09:39:01.166Z,20.00
2018-02-19T09:41:27.863Z,19.17
2018-02-19T09:43:54.449Z,18.97
2018-02-19T09:46:21.117Z,21.80
2018-02-19T09:48:47.707Z,22.40
2018-02-19T09:51:14.363Z,21.43
2018-02-19T09:53:41.084Z,21.63
2018-02-19T09:56:07.676Z,21.43
2018-02-19T09:58:34.309Z,22.87
2018-02-19T10:01:00.984Z,21.37
2018-02-19T10:03:27.615Z,23.17
2018-02-19T10:05:54.278Z,20.13
2018-02-19T10:08:20.859Z,20.93
2018-02-19T10:10:47.594Z,19.50
2018-02-19T10:13:14.214Z,19.73
2018-02-19T10:15:40.844Z,22.10
2018-02-19T10:18:07.430Z,20.03
2018-02-19T10:20:34.060Z,20.83
2018-02-19T10:23:00.722Z,19.57
2018-02-19T10:25:27.345Z,19.97
2018-02-19T10:27:53.968Z,20.50
2018-02-19T10:30:20.614Z,20.20
2018-02-19T10:32:47.222Z,20.63
2018-02-19T10:35:14.042Z,18.13
2018-02-19T10:37:40.637Z,21.33
2018-02-19T10:40:07.290Z,19.53
2018-02-19T10:42:34.889Z,22.97
2018-02-19T10:45:01.509Z,21.17
2018-02-19T10:47:28.114Z,19.50
2018-02-19T10:49:54.779Z,21.07
2018-02-19T10:52:21.393Z,20.00
2018-02-19T10:54:48.010Z,19.53
2018-02-19T10:57:14.648Z,20.13
2018-02-19T10:59:41.255Z,18.20
2018-02-19T11:02:07.883Z,21.30
2018-02-19T11:04:34.517Z,19.77
2018-02-19T11:07:01.153Z,20.20
2018-02-19T11:09:27.815Z,20.60
2018-02-19T11:11:54.429Z,21.97
2018-02-19T11:14:21.067Z,19.83
2018-02-19T11:16:47.722Z,21.07
2018-02-19T11:19:14.347Z,18.80
2018-02-19T11:21:41.026Z,19.73
2018-02-19T11:24:07.640Z,21.93
2018-02-19T11:26:34.273Z,21.10
2018-02-19T11:29:00.921Z,20.40
2018-02-19T11:31:27.547Z,21.47
2018-02-19T11:33:54.190Z,20.33
2018-02-19T11:36:20.809Z,21.50
2018-02-19T11:38:55.316Z,20.20
2018-02-19T11:41:14.103Z,21.13
2018-02-19T11:43:40.988Z,22.57
2018-02-19T11:46:07.596Z,18.60
2018-02-19T11:48:34.212Z,21.00
2018-02-19T11:51:00.870Z,19.43
2018-02-19T11:53:27.517Z,21.13
2018-02-19T11:55:54.121Z,19.83
2018-02-19T11:58:20.930Z,20.50
2018-02-19T12:00:47.549Z,20.70
2018-02-19T12:03:14.143Z,21.10
2018-02-19T12:05:40.786Z,20.93
2018-02-19T12:08:07.389Z,20.30
2018-02-19T12:10:34.114Z,19.67
2018-02-19T12:13:00.707Z,18.93
2018-02-19T12:15:27.333Z,20.53
2018-02-19T12:17:53.966Z,20.53
2018-02-19T12:20:20.597Z,22.47
2018-02-19T12:22:47.260Z,19.73
2018-02-19T12:25:13.877Z,19.10
2018-02-19T12:27:40.507Z,18.43
2018-02-19T12:30:07.177Z,18.07
2018-02-19T12:32:33.786Z,17.20
2018-02-19T12:35:00.461Z,18.30
2018-02-19T12:37:27.111Z,16.13
2018-02-19T12:39:53.765Z,15.53
2018-02-19T12:42:20.403Z,16.50
2018-02-19T12:44:46.996Z,17.70
2018-02-19T12:47:13.622Z,17.50
2018-02-19T12:49:40.215Z,19.17
2018-02-19T12:52:07.076Z,19.70
2018-02-19T12:54:33.706Z,18.20
2018-02-19T12:57:00.286Z,17.93
2018-02-19T12:59:26.903Z,16.83
2018-02-19T13:01:53.534Z,18.70
2018-02-19T13:04:20.164Z,17.97
2018-02-19T13:06:49.930Z,18.40
2018-02-19T13:09:16.684Z,17.10
2018-02-19T13:11:43.290Z,18.50
2018-02-19T13:14:09.918Z,17.97
2018-02-19T13:16:36.566Z,15.63
2018-02-19T13:19:03.188Z,15.53
2018-02-19T13:21:29.843Z,16.33
2018-02-19T13:23:56.460Z,16.70
2018-02-19T13:26:23.088Z,15.30
2018-02-19T13:28:49.692Z,15.03
2018-02-19T13:31:16.303Z,14.73
2018-02-19T13:33:43.107Z,14.30
2018-02-19T13:36:09.735Z,15.87
2018-02-19T13:38:36.352Z,16.27
2018-02-19T13:41:03.035Z,16.60
2018-02-19T13:43:34.348Z,15.50
2018-02-19T13:46:00.989Z,17.27
2018-02-19T13:48:27.613Z,16.50
2018-02-19T13:50:54.262Z,13.60
2018-02-19T13:53:21.017Z,13.37
2018-02-19T13:55:47.603Z,14.10
2018-02-19T13:58:14.320Z,13.33
2018-02-19T14:00:40.998Z,13.77
2018-02-19T14:03:07.750Z,12.80
2018-02-19T14:05:34.351Z,12.00
2018-02-19T14:08:01.171Z,14.33
2018-02-19T14:10:27.842Z,12.47
2018-02-19T14:12:54.445Z,12.63
2018-02-19T14:15:21.106Z,14.70
2018-02-19T14:17:47.794Z,14.67
2018-02-19T14:20:14.366Z,13.50
2018-02-19T14:22:40.996Z,12.73
2018-02-19T14:25:07.609Z,13.33
2018-02-19T14:27:34.259Z,11.30
2018-02-19T14:30:01.127Z,12.33
2018-02-19T14:32:28.047Z,12.07
2018-02-19T14:34:54.860Z,13.93
2018-02-19T14:37:21.501Z,14.83
2018-02-19T14:39:48.145Z,13.50
2018-02-19T14:42:14.880Z,13.13
2018-02-19T14:44:41.465Z,12.87
2018-02-19T14:47:08.138Z,13.37
2018-02-19T14:49:34.814Z,14.93
2018-02-19T14:52:01.554Z,15.87
2018-02-19T14:54:28.176Z,15.53
2018-02-19T14:56:54.943Z,16.10
2018-02-19T14:59:21.557Z,17.10
2018-02-19T15:01:48.184Z,13.90
2018-02-19T15:04:14.807Z,13.00
2018-02-19T15:06:41.438Z,23.40
2018-02-19T15:09:08.182Z,15.40
2018-02-19T15:11:34.837Z,14.70
2018-02-19T15:14:01.454Z,12.33
2018-02-19T15:16:28.061Z,13.57
2018-02-19T15:18:54.715Z,13.23
2018-02-19T15:21:21.375Z,13.30
2018-02-19T15:23:48.012Z,13.83
2018-02-19T15:26:15.366Z,15.10
2018-02-19T15:28:42.065Z,15.10
2018-02-19T15:31:08.697Z,15.63
2018-02-19T15:33:35.343Z,14.97
2018-02-19T15:36:02.069Z,15.43
2018-02-19T15:38:28.710Z,15.60
2018-02-19T15:40:55.321Z,16.20
2018-02-19T15:43:21.960Z,15.40
2018-02-19T15:45:48.608Z,14.37
2018-02-19T15:48:15.213Z,15.27
2018-02-19T15:50:41.869Z,14.37
2018-02-19T15:53:08.625Z,13.40
2018-02-19T15:55:35.239Z,14.50
2018-02-19T15:58:01.895Z,14.57
2018-02-19T16:00:28.535Z,14.40
2018-02-19T16:02:56.416Z,13.80
2018-02-19T16:05:23.141Z,15.33
2018-02-19T16:07:49.877Z,15.33
2018-02-19T16:10:16.629Z,14.23
2018-02-19T16:12:43.736Z,15.10
2018-02-19T16:15:10.443Z,14.47
2018-02-19T16:17:37.073Z,15.00
2018-02-19T16:20:03.836Z,14.50
2018-02-19T16:22:30.506Z,14.97
2018-02-19T16:24:57.280Z,14.70
2018-02-19T16:27:24.034Z,17.47
2018-02-19T16:29:50.839Z,14.70
2018-02-19T16:32:17.481Z,15.17
2018-02-19T16:34:44.103Z,14.80
2018-02-19T16:37:10.985Z,14.70
2018-02-19T16:39:37.619Z,14.60
2018-02-19T16:42:04.434Z,14.80
2018-02-19T16:44:31.056Z,13.80
2018-02-19T16:46:57.669Z,14.40
2018-02-19T16:49:24.272Z,14.47
2018-02-19T16:51:50.930Z,14.50
2018-02-19T16:54:17.543Z,13.63
2018-02-19T16:56:44.173Z,13.83
2018-02-19T16:59:10.798Z,13.67
2018-02-19T17:01:38.501Z,14.13
2018-02-19T17:04:05.112Z,14.87
2018-02-19T17:06:35.077Z,15.57
2018-02-19T17:09:01.760Z,14.20
2018-02-19T17:11:28.373Z,17.20
2018-02-19T17:13:54.982Z,16.43
2018-02-19T17:16:21.599Z,14.40
2018-02-19T17:18:48.264Z,14.53
2018-02-19T17:21:15.479Z,13.40
2018-02-19T17:23:42.316Z,15.00
2018-02-19T17:26:08.958Z,15.73
2018-02-19T17:28:35.592Z,15.43
2018-02-19T17:31:02.259Z,16.50
2018-02-19T17:33:28.900Z,19.73
2018-02-19T17:35:55.728Z,24.87
2018-02-19T17:38:22.410Z,23.83
2018-02-19T17:40:49.055Z,17.43
2018-02-19T17:43:15.740Z,16.80
2018-02-19T17:45:42.572Z,14.47
2018-02-19T17:48:09.152Z,17.47
2018-02-19T17:50:35.802Z,16.47
2018-02-19T17:53:02.836Z,17.23
2018-02-19T17:55:29.442Z,16.93
2018-02-19T17:57:56.037Z,16.47
2018-02-19T18:00:22.692Z,17.90
2018-02-19T18:02:49.318Z,17.47
2018-02-19T18:05:15.956Z,17.73
2018-02-19T18:07:42.572Z,17.10
2018-02-19T18:10:09.662Z,17.80
2018-02-19T18:12:36.262Z,19.67
2018-02-19T18:15:02.962Z,17.43
2018-02-19T18:17:29.553Z,17.93
2018-02-19T18:19:56.290Z,18.10
2018-02-19T18:22:22.952Z,19.50
2018-02-19T18:24:49.568Z,17.50
2018-02-19T18:27:16.206Z,18.30
2018-02-19T18:29:42.827Z,19.33
2018-02-19T18:32:09.505Z,17.37
2018-02-19T18:34:36.328Z,17.93
2018-02-19T18:37:03.159Z,19.40
2018-02-19T18:39:29.783Z,18.80
2018-02-19T18:41:56.388Z,20.27
2018-02-19T18:44:23.130Z,20.37
2018-02-19T18:46:49.762Z,20.97
2018-02-19T18:49:16.637Z,19.73
2018-02-19T18:51:44.082Z,21.83
2018-02-19T18:54:10.892Z,21.13
2018-02-19T18:56:37.539Z,20.17
2018-02-19T18:59:04.148Z,20.23
2018-02-19T19:01:30.731Z,19.00
2018-02-19T19:03:57.629Z,20.77
2018-02-19T19:06:24.628Z,21.90
2018-02-19T19:08:56.972Z,20.37
2018-02-19T19:11:23.633Z,20.10
2018-02-19T19:13:50.277Z,19.97
2018-02-19T19:16:16.920Z,18.97
2018-02-19T19:18:43.626Z,17.73
2018-02-19T19:21:10.216Z,19.90
2018-02-19T19:23:36.862Z,19.40
2018-02-19T19:26:03.503Z,18.13
2018-02-19T19:28:30.125Z,16.43
2018-02-19T19:30:56.727Z,15.97
2018-02-19T19:33:23.431Z,16.13
2018-02-19T19:35:50.091Z,15.30
2018-02-19T19:38:16.770Z,17.00
2018-02-19T19:40:43.379Z,16.87
2018-02-19T19:43:10.060Z,15.03
2018-02-19T19:45:36.716Z,16.10
2018-02-19T19:48:03.356Z,16.77
2018-02-19T19:50:30.032Z,17.40
2018-02-19T19:52:56.689Z,17.27
2018-02-19T19:55:23.313Z,17.70
2018-02-19T19:57:49.928Z,17.73
2018-02-19T20:00:16.983Z,17.60
2018-02-19T20:02:43.660Z,17.53
2018-02-19T20:05:10.281Z,16.10
2018-02-19T20:07:36.897Z,17.47
2018-02-19T20:10:03.622Z,18.60
2018-02-19T20:12:30.393Z,18.20
2018-02-19T20:14:57.022Z,17.20
2018-02-19T20:17:24.447Z,18.60
2018-02-19T20:19:51.202Z,17.10
2018-02-19T20:22:17.910Z,16.87
2018-02-19T20:24:44.500Z,16.20
2018-02-19T20:27:11.284Z,16.03
2018-02-19T20:29:37.922Z,18.87
2018-02-19T20:32:04.660Z,17.97
2018-02-19T20:34:31.366Z,17.00
2018-02-19T20:36:58.078Z,17.40
2018-02-19T20:39:24.717Z,15.90
2018-02-19T20:41:51.641Z,16.83
2018-02-19T20:44:18.270Z,16.60
2018-02-19T20:46:44.917Z,15.80
2018-02-19T20:49:11.819Z,16.30
2018-02-19T20:51:38.513Z,17.63
2018-02-19T20:54:05.179Z,16.40
2018-02-19T20:56:31.788Z,16.50
2018-02-19T20:58:58.455Z,18.07
2018-02-19T21:01:25.113Z,18.60
2018-02-19T21:03:51.830Z,16.80
2018-02-19T21:06:18.461Z,17.67
2018-02-19T21:08:45.140Z,18.67
2018-02-19T21:11:11.852Z,17.70
2018-02-19T21:13:38.909Z,18.50
2018-02-19T21:16:05.581Z,20.13
2018-02-19T21:18:32.204Z,17.53
2018-02-19T21:20:58.922Z,16.93
2018-02-19T21:23:25.559Z,17.63
2018-02-19T21:25:52.195Z,18.13
2018-02-19T21:28:19.606Z,16.93
2018-02-19T21:30:46.246Z,17.73
2018-02-19T21:33:12.874Z,17.53
2018-02-19T21:35:39.758Z,16.47
2018-02-19T21:38:06.391Z,17.20
2018-02-19T21:40:33.020Z,17.80
2018-02-19T21:42:59.708Z,16.43
2018-02-19T21:45:26.397Z,17.43
2018-02-19T21:47:53.077Z,17.10
2018-02-19T21:50:19.710Z,17.17
2018-02-19T21:52:46.345Z,17.77
2018-02-19T21:55:13.140Z,18.40
2018-02-19T21:57:39.756Z,18.47
2018-02-19T22:00:06.391Z,20.73
2018-02-19T23:24:29.315Z,15.60
2018-02-19T23:26:55.946Z,16.53
2018-02-19T23:29:22.544Z,17.70
2018-02-19T23:31:49.167Z,17.90
2018-02-19T23:34:15.781Z,17.90
2018-02-19T23:36:42.406Z,18.60
2018-02-19T23:39:09.014Z,16.40
2018-02-19T23:41:35.643Z,17.60
2018-02-19T23:44:02.268Z,17.97
2018-02-19T23:46:28.879Z,17.93
2018-02-19T23:48:55.489Z,18.20
2018-02-19T23:51:22.111Z,19.30
2018-02-19T23:53:48.792Z,19.27
2018-02-19T23:56:15.399Z,19.97
2018-02-19T23:58:42.026Z,19.50
